Time;durP1;ratioP1;P1;durP2;ratioP2;P2;SDS_P1;SDS_P2;PMS_P1;PMS_P2;Temp;Humidity;BMP_temperature;BMP_pressure;BME280_temperature;BME280_humidity;BME280_pressure;Samples;Min_cycle;Max_cycle;Signal;HPM_P1;HPM_P2
2023/11/19 00:00:35;;;;;;;5.55;4.90;;;13.30;99.90;;;;;;5020901;28;20381;-85
2023/11/19 00:03:01;;;;;;;6.50;5.88;;;13.40;99.90;;;;;;5020313;28;20057;-86
2023/11/19 00:05:27;;;;;;;6.70;5.97;;;13.40;99.90;;;;;;5054235;28;20029;-86
2023/11/19 00:07:53;;;;;;;6.72;6.05;;;13.40;99.90;;;;;;5054222;28;20525;-86
2023/11/19 00:10:20;;;;;;;7.50;6.13;;;13.40;99.90;;;;;;5037331;28;20036;-86
2023/11/19 00:12:47;;;;;;;8.15;5.70;;;13.40;99.90;;;;;;5055372;28;20468;-85
2023/11/19 00:15:18;;;;;;;7.57;5.72;;;13.40;99.90;;;;;;5037159;28;20033;-85
2023/11/19 00:17:48;;;;;;;6.15;5.60;;;13.40;99.90;;;;;;5055309;28;20048;-86
2023/11/19 00:20:15;;;;;;;6.78;6.07;;;13.40;99.90;;;;;;5037396;28;20464;-86
2023/11/19 00:22:42;;;;;;;6.28;5.68;;;13.50;99.90;;;;;;5053647;28;20464;-86
2023/11/19 00:25:08;;;;;;;6.05;5.00;;;13.50;99.90;;;;;;5053974;28;20093;-86
2023/11/19 00:27:34;;;;;;;6.07;5.47;;;13.50;99.90;;;;;;5020451;28;20090;-86
2023/11/19 00:29:59;;;;;;;6.28;4.95;;;13.50;99.90;;;;;;5037293;28;20033;-86
2023/11/19 00:32:25;;;;;;;6.93;4.93;;;13.50;99.90;;;;;;5053376;28;20029;-86
2023/11/19 00:34:51;;;;;;;7.85;4.97;;;13.50;99.90;;;;;;5055332;28;20029;-85
2023/11/19 00:37:16;;;;;;;5.22;4.20;;;13.60;99.90;;;;;;5021982;28;20064;-86
2023/11/19 00:39:46;;;;;;;8.10;4.35;;;13.50;99.90;;;;;;5075382;28;20045;-86
2023/11/19 00:42:11;;;;;;;6.40;4.22;;;13.60;99.90;;;;;;5078440;28;20029;-86
2023/11/19 00:44:37;;;;;;;7.50;4.32;;;13.50;99.90;;;;;;5078112;28;20092;-86
2023/11/19 00:47:03;;;;;;;6.40;4.63;;;13.60;99.90;;;;;;5078073;28;20033;-84
2023/11/19 00:49:29;;;;;;;6.18;3.75;;;13.60;99.90;;;;;;5042495;28;20033;-86
2023/11/19 00:52:01;;;;;;;7.57;3.75;;;13.60;99.90;;;;;;5037357;28;20029;-86
2023/11/19 00:54:27;;;;;;;6.25;3.97;;;13.60;99.90;;;;;;5037419;28;20025;-87
2023/11/19 00:56:53;;;;;;;7.82;3.95;;;13.60;99.90;;;;;;5036653;28;20025;-86
2023/11/19 00:59:22;;;;;;;6.93;4.10;;;13.60;99.90;;;;;;5035633;28;20044;-86
2023/11/19 01:01:53;;;;;;;6.47;3.75;;;13.60;99.90;;;;;;5036629;28;20055;-86
2023/11/19 01:04:19;;;;;;;6.30;3.58;;;13.60;99.90;;;;;;5052518;28;20053;-86
2023/11/19 01:06:45;;;;;;;8.35;4.03;;;13.60;99.90;;;;;;5036318;28;20032;-85
2023/11/19 01:09:10;;;;;;;10.10;3.75;;;13.70;99.90;;;;;;5054143;28;20053;-86
2023/11/19 01:11:36;;;;;;;6.47;3.33;;;13.70;99.90;;;;;;5036154;28;20358;-86
2023/11/19 01:14:05;;;;;;;5.75;3.20;;;13.70;99.90;;;;;;5036044;28;20033;-86
2023/11/19 01:16:31;;;;;;;8.50;4.05;;;13.70;99.90;;;;;;5036526;28;20469;-86
2023/11/19 01:18:56;;;;;;;6.72;3.55;;;13.70;99.90;;;;;;5035919;28;20041;-86
2023/11/19 01:21:22;;;;;;;6.18;3.33;;;13.70;99.90;;;;;;5052567;28;20029;-86
2023/11/19 01:23:48;;;;;;;10.18;3.85;;;13.70;99.90;;;;;;5052972;28;20115;-85
2023/11/19 01:26:14;;;;;;;9.10;4.38;;;13.70;99.90;;;;;;5052505;28;20033;-86
2023/11/19 01:28:44;;;;;;;7.35;3.03;;;13.70;99.90;;;;;;5052649;28;20059;-85
2023/11/19 01:31:15;;;;;;;7.93;3.15;;;13.70;99.90;;;;;;5036800;28;20484;-85
2023/11/19 01:33:41;;;;;;;9.68;3.25;;;13.70;99.90;;;;;;5036678;28;20121;-86
2023/11/19 01:36:08;;;;;;;8.13;3.40;;;13.70;99.90;;;;;;5036039;28;20037;-86
2023/11/19 01:38:34;;;;;;;10.25;4.35;;;13.70;99.90;;;;;;5053873;28;20032;-86
2023/11/19 01:41:01;;;;;;;12.48;3.88;;;13.70;99.90;;;;;;5035744;28;20029;-85
2023/11/19 01:43:41;;;;;;;10.88;3.45;;;13.70;99.90;;;;;;5052235;28;20029;-85
2023/11/19 01:46:09;;;;;;;9.10;3.03;;;13.70;99.90;;;;;;5052619;28;20025;-85
2023/11/19 01:48:36;;;;;;;8.45;3.35;;;13.70;99.90;;;;;;5053649;28;20025;-86
2023/11/19 01:51:03;;;;;;;13.13;3.42;;;13.80;99.90;;;;;;5036200;28;20033;-86
2023/11/19 01:53:30;;;;;;;7.82;3.22;;;13.80;99.90;;;;;;5034933;28;20032;-85
2023/11/19 01:55:56;;;;;;;12.07;3.42;;;13.70;99.90;;;;;;5035660;28;20049;-85
2023/11/19 01:58:23;;;;;;;11.50;3.25;;;13.70;99.90;;;;;;5052304;28;20408;-85
2023/11/19 02:00:48;;;;;;;11.30;3.53;;;13.80;99.90;;;;;;5052559;28;20083;-85
2023/11/19 02:03:18;;;;;;;13.52;3.92;;;13.70;99.90;;;;;;5035362;28;20074;-85
2023/11/19 02:05:46;;;;;;;10.50;3.33;;;13.80;99.90;;;;;;5036112;28;20033;-85
2023/11/19 02:08:13;;;;;;;9.55;2.92;;;13.70;99.90;;;;;;5019969;28;20026;-85
2023/11/19 02:10:39;;;;;;;11.35;3.55;;;13.80;99.90;;;;;;5053997;28;20376;-86
2023/11/19 02:13:06;;;;;;;17.88;4.35;;;13.70;99.90;;;;;;5040057;28;20066;-85
2023/11/19 02:15:32;;;;;;;13.95;3.85;;;13.70;99.90;;;;;;5040480;28;20512;-85
2023/11/19 02:18:18;;;;;;;9.80;3.50;;;13.70;99.90;;;;;;5058825;28;20041;-84
2023/11/19 02:20:44;;;;;;;15.00;4.28;;;13.70;99.90;;;;;;5080919;28;20081;-85
2023/11/19 02:23:11;;;;;;;13.93;3.97;;;13.70;99.90;;;;;;5064303;28;20028;-84
2023/11/19 02:25:38;;;;;;;13.20;3.92;;;13.70;99.90;;;;;;5064001;28;20025;-85
2023/11/19 02:28:05;;;;;;;12.13;3.60;;;13.70;99.90;;;;;;5048365;28;20037;-85
2023/11/19 02:30:31;;;;;;;13.60;3.75;;;13.70;99.90;;;;;;5023707;28;20029;-85
2023/11/19 02:33:05;;;;;;;13.65;3.60;;;13.70;99.90;;;;;;5056065;28;20057;-84
2023/11/19 02:35:31;;;;;;;12.63;3.63;;;13.70;99.90;;;;;;5040121;28;20116;-85
2023/11/19 02:37:59;;;;;;;16.23;4.05;;;13.70;99.90;;;;;;5039242;28;20074;-85
2023/11/19 02:40:25;;;;;;;18.27;4.15;;;13.70;99.90;;;;;;5055497;28;20021;-85
2023/11/19 02:42:55;;;;;;;17.13;4.13;;;13.70;99.90;;;;;;5039052;28;20029;-85
2023/11/19 02:45:23;;;;;;;13.07;3.43;;;13.70;99.90;;;;;;5055536;28;20025;-86
2023/11/19 02:48:01;;;;;;;13.93;3.72;;;13.70;99.90;;;;;;5055442;28;20049;-85
2023/11/19 02:50:27;;;;;;;14.77;4.30;;;13.60;99.90;;;;;;5040735;28;20056;-85
2023/11/19 02:52:56;;;;;;;13.88;4.03;;;13.60;99.90;;;;;;5038520;28;20434;-85
2023/11/19 02:55:23;;;;;;;15.70;3.70;;;13.60;99.90;;;;;;5055409;28;20053;-85
2023/11/19 02:57:49;;;;;;;17.35;3.95;;;13.60;99.90;;;;;;5054838;28;20029;-85
2023/11/19 03:00:16;;;;;;;17.50;3.67;;;13.60;99.90;;;;;;5056523;28;20103;-85
2023/11/19 03:02:46;;;;;;;15.98;3.75;;;13.60;99.90;;;;;;5054740;28;20052;-85
2023/11/19 03:05:16;;;;;;;19.03;5.03;;;13.60;99.90;;;;;;5039149;28;20453;-85
2023/11/19 03:07:46;;;;;;;21.35;4.63;;;13.60;99.90;;;;;;5054917;28;20056;-85
2023/11/19 03:10:13;;;;;;;25.23;5.03;;;13.60;99.90;;;;;;5055103;28;20065;-85
2023/11/19 03:12:40;;;;;;;19.10;5.53;;;13.60;99.90;;;;;;5055182;28;20033;-86
2023/11/19 03:15:07;;;;;;;17.85;4.50;;;13.50;99.90;;;;;;5054981;28;20029;-85
2023/11/19 03:17:33;;;;;;;21.20;4.65;;;13.50;99.90;;;;;;5055888;28;20381;-85
2023/11/19 03:20:01;;;;;;;17.33;5.22;;;13.50;99.90;;;;;;5056274;28;20083;-85
2023/11/19 03:22:26;;;;;;;19.25;5.25;;;13.40;99.90;;;;;;5021316;28;20033;-86
2023/11/19 03:24:52;;;;;;;22.30;5.10;;;13.50;99.90;;;;;;5054633;28;20388;-85
2023/11/19 03:27:18;;;;;;;23.13;5.57;;;13.40;99.90;;;;;;5037635;28;20186;-85
2023/11/19 03:29:43;;;;;;;17.52;5.60;;;13.40;99.90;;;;;;5038444;28;20022;-85
2023/11/19 03:32:09;;;;;;;19.00;4.90;;;13.40;99.90;;;;;;5021511;28;20456;-85
2023/11/19 03:34:34;;;;;;;19.55;5.18;;;13.40;99.90;;;;;;5054650;28;20021;-85
2023/11/19 03:37:00;;;;;;;23.20;6.40;;;13.40;99.90;;;;;;5037653;28;20456;-85
2023/11/19 03:39:27;;;;;;;22.52;5.90;;;13.40;99.90;;;;;;5021478;28;20075;-86
2023/11/19 03:41:52;;;;;;;22.95;6.65;;;13.30;99.90;;;;;;5038173;28;20388;-86
2023/11/19 03:44:19;;;;;;;27.33;5.93;;;13.30;99.90;;;;;;5054348;28;20033;-85
2023/11/19 03:46:44;;;;;;;24.42;5.68;;;13.30;99.90;;;;;;5055635;28;20449;-85
2023/11/19 03:49:11;;;;;;;28.90;6.93;;;13.30;99.90;;;;;;5054832;28;20025;-85
2023/11/19 03:51:37;;;;;;;24.20;6.30;;;13.20;99.90;;;;;;5055960;28;20020;-85
2023/11/19 03:54:06;;;;;;;28.45;6.18;;;13.10;99.90;;;;;;5038487;28;20481;-85
2023/11/19 03:56:32;;;;;;;21.65;4.93;;;13.20;99.90;;;;;;5060608;28;20024;-85
2023/11/19 03:58:58;;;;;;;22.63;5.55;;;13.10;99.90;;;;;;5077541;28;20032;-85
2023/11/19 04:01:23;;;;;;;23.83;6.35;;;13.10;99.90;;;;;;5062132;28;20033;-85
2023/11/19 04:03:49;;;;;;;27.50;6.43;;;13.00;99.90;;;;;;5091355;28;20421;-85
2023/11/19 04:06:15;;;;;;;26.05;6.22;;;13.00;99.90;;;;;;5027802;28;20574;-85
2023/11/19 04:08:41;;;;;;;19.25;4.80;;;13.00;99.90;;;;;;5041339;28;20021;-85
2023/11/19 04:11:08;;;;;;;23.25;6.55;;;13.00;99.90;;;;;;5024408;28;20028;-85
2023/11/19 04:13:34;;;;;;;19.67;5.57;;;12.90;99.90;;;;;;5040735;28;20040;-85
2023/11/19 04:16:00;;;;;;;17.98;6.03;;;12.90;99.90;;;;;;5040324;28;20033;-85
2023/11/19 04:18:25;;;;;;;21.17;5.15;;;12.90;99.90;;;;;;5024096;28;20020;-85
2023/11/19 04:20:51;;;;;;;18.10;4.70;;;12.90;99.90;;;;;;5023976;28;20040;-85
2023/11/19 04:23:17;;;;;;;20.10;5.70;;;12.80;99.90;;;;;;5040425;28;20501;-85
2023/11/19 04:25:42;;;;;;;19.63;4.93;;;12.80;99.90;;;;;;5074813;28;20491;-85
2023/11/19 04:28:09;;;;;;;20.50;4.80;;;12.80;99.90;;;;;;5056878;28;20039;-86
2023/11/19 04:30:35;;;;;;;20.83;5.18;;;12.80;99.90;;;;;;5040148;28;20111;-85
2023/11/19 04:33:03;;;;;;;21.85;5.10;;;12.70;99.90;;;;;;5040140;28;20503;-85
2023/11/19 04:35:29;;;;;;;23.77;5.20;;;12.70;99.90;;;;;;5039646;28;20062;-85
2023/11/19 04:37:57;;;;;;;24.13;5.38;;;12.70;99.90;;;;;;5039849;28;20129;-85
2023/11/19 04:40:23;;;;;;;22.75;5.22;;;12.60;99.90;;;;;;5057043;28;20052;-85
2023/11/19 04:42:49;;;;;;;19.33;4.88;;;12.60;99.90;;;;;;5023230;28;20060;-86
2023/11/19 04:45:16;;;;;;;20.05;4.65;;;12.60;99.90;;;;;;5023487;28;20024;-85
2023/11/19 04:47:42;;;;;;;21.00;5.45;;;12.60;99.90;;;;;;5039951;28;20024;-85
2023/11/19 04:50:10;;;;;;;20.85;5.03;;;12.50;99.90;;;;;;5056350;28;20033;-84
2023/11/19 04:52:40;;;;;;;21.27;5.32;;;12.60;99.90;;;;;;5056500;28;20033;-86
2023/11/19 04:55:18;;;;;;;18.42;5.13;;;12.50;99.90;;;;;;5074179;28;20380;-85
2023/11/19 04:57:43;;;;;;;21.50;5.25;;;12.50;99.90;;;;;;5026093;28;20024;-85
2023/11/19 05:00:14;;;;;;;21.52;5.38;;;12.50;99.90;;;;;;5056174;28;20098;-85
2023/11/19 05:02:45;;;;;;;21.83;5.97;;;12.40;99.90;;;;;;5073744;28;20466;-85
2023/11/19 05:05:12;;;;;;;23.75;5.38;;;12.50;99.90;;;;;;5039591;28;20048;-85
2023/11/19 05:07:38;;;;;;;25.88;5.28;;;12.50;99.90;;;;;;5056647;28;20036;-86
2023/11/19 05:10:04;;;;;;;23.80;6.78;;;12.40;99.90;;;;;;5055936;28;20033;-85
2023/11/19 05:12:31;;;;;;;23.55;5.45;;;12.40;99.90;;;;;;5039635;28;20056;-85
2023/11/19 05:14:57;;;;;;;22.92;5.45;;;12.40;99.90;;;;;;5055894;28;20079;-85
2023/11/19 05:17:23;;;;;;;20.13;5.10;;;12.40;99.90;;;;;;5039511;28;20375;-85
2023/11/19 05:19:49;;;;;;;23.63;5.20;;;12.40;99.90;;;;;;5055878;28;20032;-85
2023/11/19 05:22:14;;;;;;;23.33;5.57;;;12.40;99.90;;;;;;5039384;28;20029;-85
2023/11/19 05:24:44;;;;;;;21.10;5.10;;;12.40;99.90;;;;;;5056769;28;20060;-85
2023/11/19 05:27:11;;;;;;;20.85;5.15;;;12.40;99.90;;;;;;5039723;28;20124;-84
2023/11/19 05:29:39;;;;;;;23.17;5.35;;;12.40;99.90;;;;;;5057028;28;20028;-85
2023/11/19 05:32:05;;;;;;;20.42;5.28;;;12.40;99.90;;;;;;5057385;28;20017;-85
2023/11/19 05:34:30;;;;;;;23.85;5.75;;;12.40;99.90;;;;;;5048005;28;20004;-85
2023/11/19 05:36:57;;;;;;;21.00;5.90;;;12.40;99.90;;;;;;5080827;28;20023;-85
2023/11/19 05:39:23;;;;;;;25.48;5.75;;;12.40;99.90;;;;;;5048005;28;20016;-85
2023/11/19 05:41:48;;;;;;;23.73;5.35;;;12.40;99.90;;;;;;5067259;28;20115;-85
2023/11/19 05:44:14;;;;;;;21.38;5.10;;;12.40;99.90;;;;;;5024048;28;20039;-85
2023/11/19 05:46:42;;;;;;;27.85;6.35;;;12.40;99.90;;;;;;5058136;28;20086;-85
2023/11/19 05:49:08;;;;;;;20.38;5.82;;;12.40;99.90;;;;;;5060542;28;20048;-85
2023/11/19 05:51:38;;;;;;;23.88;5.13;;;12.40;99.90;;;;;;5059681;28;20028;-85
2023/11/19 05:54:08;;;;;;;23.33;5.70;;;12.40;99.90;;;;;;5059843;28;20054;-85
2023/11/19 05:56:34;;;;;;;34.30;6.75;;;12.40;99.90;;;;;;5077621;28;20024;-86
2023/11/19 05:59:01;;;;;;;21.10;5.43;;;12.40;99.90;;;;;;5059304;28;20024;-85
2023/11/19 06:01:27;;;;;;;24.77;5.45;;;12.40;99.90;;;;;;5059666;28;20450;-85
2023/11/19 06:03:52;;;;;;;29.60;6.68;;;12.40;99.90;;;;;;5042539;28;20136;-84
2023/11/19 06:06:18;;;;;;;30.30;6.65;;;12.40;99.90;;;;;;5042784;28;20028;-84
2023/11/19 06:08:44;;;;;;;21.60;6.05;;;12.30;99.90;;;;;;5059303;28;20031;-85
2023/11/19 06:11:18;;;;;;;30.60;6.78;;;12.30;99.90;;;;;;5059133;28;20021;-85
2023/11/19 06:13:44;;;;;;;22.45;5.70;;;12.30;99.90;;;;;;5077292;28;20111;-85
2023/11/19 06:16:10;;;;;;;29.27;6.55;;;12.30;99.90;;;;;;5059271;28;20033;-85
2023/11/19 06:18:39;;;;;;;21.58;5.65;;;12.30;99.90;;;;;;5059094;28;20032;-85
2023/11/19 06:21:04;;;;;;;20.73;5.70;;;12.30;99.90;;;;;;5059359;28;20024;-85
2023/11/19 06:23:30;;;;;;;26.35;6.85;;;12.30;99.90;;;;;;5058975;28;20383;-85
2023/11/19 06:25:56;;;;;;;27.80;5.57;;;12.30;99.90;;;;;;5042817;28;20028;-84
2023/11/19 06:28:21;;;;;;;22.20;6.05;;;12.30;99.90;;;;;;5042410;28;20028;-86
2023/11/19 06:30:47;;;;;;;28.65;6.70;;;12.30;99.90;;;;;;5059302;28;20029;-85
2023/11/19 06:33:14;;;;;;;28.35;6.93;;;12.20;99.90;;;;;;5025872;28;20029;-85
2023/11/19 06:35:39;;;;;;;21.60;5.25;;;12.20;99.90;;;;;;5042381;28;20074;-85
2023/11/19 06:38:05;;;;;;;21.83;5.47;;;12.20;99.90;;;;;;5076413;28;20024;-84
2023/11/19 06:40:34;;;;;;;19.35;5.75;;;12.30;99.90;;;;;;5042263;28;20025;-85
2023/11/19 06:43:00;;;;;;;28.35;6.10;;;12.20;99.90;;;;;;5026250;28;20037;-85
2023/11/19 06:45:26;;;;;;;23.08;6.13;;;12.20;99.90;;;;;;5077130;28;20035;-86
2023/11/19 06:47:52;;;;;;;32.45;6.43;;;12.20;99.90;;;;;;5025481;28;20035;-85
2023/11/19 06:50:19;;;;;;;28.58;6.35;;;12.10;99.90;;;;;;5041971;28;20028;-85
2023/11/19 06:52:45;;;;;;;23.67;5.80;;;12.10;99.90;;;;;;5042207;28;20028;-85
2023/11/19 06:55:11;;;;;;;21.83;5.15;;;12.10;99.90;;;;;;5058548;28;20017;-85
2023/11/19 06:57:36;;;;;;;28.00;6.05;;;12.10;99.90;;;;;;5040736;28;20024;-85
2023/11/19 07:00:05;;;;;;;31.17;6.43;;;12.10;99.90;;;;;;5041950;28;20024;-85
2023/11/19 07:02:31;;;;;;;23.90;5.57;;;12.10;99.90;;;;;;5042155;28;20032;-85
2023/11/19 07:04:57;;;;;;;21.50;4.97;;;12.10;99.90;;;;;;5058476;28;20048;-85
2023/11/19 07:07:23;;;;;;;18.38;5.43;;;12.20;99.90;;;;;;5091555;28;20103;-85
2023/11/19 07:09:48;;;;;;;17.58;5.53;;;12.10;99.90;;;;;;5083160;28;20025;-85
2023/11/19 07:12:14;;;;;;;25.25;6.10;;;12.10;99.90;;;;;;5100583;28;20064;-84
2023/11/19 07:14:41;;;;;;;25.70;6.18;;;12.10;99.90;;;;;;5083750;28;20080;-85
2023/11/19 07:17:08;;;;;;;24.80;6.35;;;12.10;99.90;;;;;;5099134;28;20020;-85
2023/11/19 07:19:36;;;;;;;21.48;5.95;;;12.10;99.90;;;;;;5053897;28;20030;-85
2023/11/19 07:22:04;;;;;;;24.23;5.80;;;12.10;99.90;;;;;;5058440;28;20040;-87
2023/11/19 07:24:30;;;;;;;28.40;6.18;;;12.10;99.90;;;;;;5075837;28;20078;-86
2023/11/19 07:26:56;;;;;;;26.35;6.07;;;12.10;99.90;;;;;;5041310;28;20480;-85
2023/11/19 07:29:21;;;;;;;25.63;6.45;;;12.10;99.90;;;;;;5058001;28;20052;-86
2023/11/19 07:31:49;;;;;;;25.33;5.47;;;12.10;99.90;;;;;;5058365;28;20040;-86
2023/11/19 07:34:14;;;;;;;23.73;6.40;;;12.10;99.90;;;;;;5057567;28;20033;-85
2023/11/19 07:36:40;;;;;;;26.00;5.53;;;12.10;99.90;;;;;;5075883;28;20158;-86
2023/11/19 07:39:06;;;;;;;27.05;6.70;;;12.10;99.90;;;;;;5041306;28;20036;-86
2023/11/19 07:41:32;;;;;;;26.55;6.72;;;12.10;99.90;;;;;;5040892;28;20035;-86
2023/11/19 07:43:58;;;;;;;24.25;6.03;;;12.10;99.90;;;;;;5057816;28;20052;-85
2023/11/19 07:46:25;;;;;;;25.50;6.25;;;12.10;99.90;;;;;;5057674;28;20380;-85
2023/11/19 07:48:50;;;;;;;26.08;6.43;;;12.10;99.90;;;;;;5057808;28;20020;-86
2023/11/19 07:51:18;;;;;;;26.45;5.30;;;12.10;99.90;;;;;;5057606;28;20036;-86
2023/11/19 07:53:44;;;;;;;26.63;6.10;;;12.10;99.90;;;;;;5057154;28;20468;-85
2023/11/19 07:56:10;;;;;;;24.75;5.28;;;12.10;99.90;;;;;;5057138;28;20123;-85
2023/11/19 07:58:36;;;;;;;20.25;4.97;;;12.10;99.90;;;;;;5024582;28;20128;-86
2023/11/19 08:01:02;;;;;;;28.95;6.65;;;12.20;99.90;;;;;;5057163;28;20025;-85
2023/11/19 08:03:29;;;;;;;23.77;5.45;;;12.10;99.90;;;;;;5040266;28;20102;-85
2023/11/19 08:05:58;;;;;;;22.33;6.82;;;12.10;99.90;;;;;;5056992;28;20017;-85
2023/11/19 08:08:24;;;;;;;28.17;6.57;;;12.20;99.90;;;;;;5056766;28;20028;-86
2023/11/19 08:10:51;;;;;;;23.27;5.38;;;12.20;99.90;;;;;;5040537;28;20024;-86
2023/11/19 08:13:25;;;;;;;22.15;5.57;;;12.20;99.90;;;;;;5040719;28;20128;-85
2023/11/19 08:15:51;;;;;;;28.67;7.28;;;12.20;99.90;;;;;;5075014;28;20025;-85
2023/11/19 08:18:18;;;;;;;28.85;6.20;;;12.30;99.90;;;;;;5056607;28;20036;-86
2023/11/19 08:20:44;;;;;;;20.88;4.65;;;12.30;99.90;;;;;;5040302;28;20035;-85
2023/11/19 08:23:10;;;;;;;23.35;5.82;;;12.30;99.90;;;;;;5057272;28;20119;-85
2023/11/19 08:25:36;;;;;;;28.08;6.18;;;12.30;99.90;;;;;;5075147;28;20129;-85
2023/11/19 08:28:03;;;;;;;25.67;6.40;;;12.30;99.90;;;;;;5074968;28;20052;-85
2023/11/19 08:30:30;;;;;;;24.27;6.13;;;12.30;99.90;;;;;;5056569;28;20472;-86
2023/11/19 08:32:56;;;;;;;23.98;5.80;;;12.30;99.90;;;;;;5040542;28;20035;-86
2023/11/19 08:35:21;;;;;;;24.15;5.15;;;12.30;99.90;;;;;;5040322;28;20445;-85
2023/11/19 08:37:47;;;;;;;24.60;5.90;;;12.40;99.90;;;;;;5076287;28;20025;-86
2023/11/19 08:40:14;;;;;;;21.20;5.55;;;12.40;99.90;;;;;;5048226;28;20024;-85
2023/11/19 08:42:40;;;;;;;19.75;4.85;;;12.40;99.90;;;;;;5080679;28;20028;-86
2023/11/19 08:45:06;;;;;;;21.27;5.88;;;12.50;99.90;;;;;;5064425;28;20553;-86
2023/11/19 08:47:31;;;;;;;21.75;5.55;;;12.50;99.90;;;;;;5062844;28;20029;-86
2023/11/19 08:49:58;;;;;;;21.05;5.35;;;12.50;99.90;;;;;;5084827;28;20055;-86
2023/11/19 08:52:24;;;;;;;18.00;4.78;;;12.60;99.90;;;;;;5035712;28;20021;-87
2023/11/19 08:54:49;;;;;;;26.92;5.45;;;12.60;99.90;;;;;;5057456;28;20021;-86
2023/11/19 08:57:15;;;;;;;24.60;5.38;;;12.60;99.90;;;;;;5040238;28;20032;-85
2023/11/19 08:59:41;;;;;;;18.52;5.28;;;12.60;99.90;;;;;;5039687;28;20032;-85
2023/11/19 09:02:09;;;;;;;27.13;5.70;;;12.60;99.90;;;;;;5039318;28;20062;-86
2023/11/19 09:04:35;;;;;;;23.23;5.78;;;12.60;99.90;;;;;;5073738;28;20048;-85
2023/11/19 09:07:01;;;;;;;26.38;7.03;;;12.70;99.90;;;;;;5056658;28;20375;-85
2023/11/19 09:09:27;;;;;;;21.98;5.35;;;12.70;99.90;;;;;;5055774;28;20024;-85
2023/11/19 09:11:53;;;;;;;24.33;5.13;;;12.70;99.90;;;;;;5023326;28;20028;-86
2023/11/19 09:14:18;;;;;;;22.77;5.63;;;12.70;99.90;;;;;;5074014;28;20032;-85
2023/11/19 09:16:44;;;;;;;25.42;5.45;;;12.70;99.90;;;;;;5055936;28;20024;-86
2023/11/19 09:19:09;;;;;;;19.95;5.40;;;12.70;99.90;;;;;;5056592;28;20021;-86
2023/11/19 09:21:38;;;;;;;23.98;6.13;;;12.80;99.90;;;;;;5038280;28;20028;-86
2023/11/19 09:24:04;;;;;;;25.42;5.82;;;12.80;99.90;;;;;;5056504;28;20020;-86
2023/11/19 09:26:30;;;;;;;22.25;4.88;;;12.80;99.90;;;;;;5039481;28;20078;-85
2023/11/19 09:28:56;;;;;;;24.13;5.85;;;12.80;99.90;;;;;;5074281;28;20029;-87
2023/11/19 09:31:22;;;;;;;22.90;5.32;;;12.80;99.90;;;;;;5073521;28;20024;-86
2023/11/19 09:33:47;;;;;;;17.90;4.60;;;12.80;99.90;;;;;;5055750;28;20081;-86
2023/11/19 09:36:13;;;;;;;19.02;5.30;;;12.90;99.90;;;;;;5039357;28;20036;-86
2023/11/19 09:38:40;;;;;;;26.73;5.70;;;12.90;99.90;;;;;;5055483;28;20533;-86
2023/11/19 09:41:09;;;;;;;18.23;5.35;;;12.90;99.90;;;;;;5056171;28;20033;-86
2023/11/19 09:43:36;;;;;;;23.40;5.65;;;12.90;99.90;;;;;;5039603;28;20490;-85
2023/11/19 09:46:06;;;;;;;21.38;5.55;;;13.00;99.90;;;;;;5055265;28;20021;-85
2023/11/19 09:48:40;;;;;;;21.80;5.57;;;13.00;99.90;;;;;;5055789;28;20017;-85
2023/11/19 09:51:06;;;;;;;24.75;5.43;;;13.00;99.90;;;;;;5055763;28;20108;-86
2023/11/19 09:53:33;;;;;;;25.27;6.13;;;13.00;99.90;;;;;;5039134;28;20116;-85
2023/11/19 09:56:02;;;;;;;20.40;5.13;;;13.00;99.90;;;;;;5055584;28;20433;-85
2023/11/19 09:58:32;;;;;;;20.88;5.10;;;13.10;99.90;;;;;;5055487;28;20415;-85
2023/11/19 10:00:59;;;;;;;23.75;5.70;;;13.10;99.90;;;;;;5073690;28;20461;-85
2023/11/19 10:03:26;;;;;;;21.90;5.30;;;13.10;99.90;;;;;;5055164;28;20045;-85
2023/11/19 10:05:54;;;;;;;18.38;5.05;;;13.10;99.90;;;;;;5055705;28;20025;-84
2023/11/19 10:08:20;;;;;;;24.80;6.53;;;13.10;99.90;;;;;;5055980;28;20074;-85
2023/11/19 10:10:47;;;;;;;21.65;5.13;;;13.20;99.90;;;;;;5038971;28;20024;-85
2023/11/19 10:13:14;;;;;;;18.95;4.75;;;13.20;99.90;;;;;;5055561;28;20091;-86
2023/11/19 10:15:40;;;;;;;25.73;5.70;;;13.20;99.90;;;;;;5074216;28;20021;-86
2023/11/19 10:18:06;;;;;;;19.27;4.82;;;13.20;99.90;;;;;;5057224;28;20448;-86
2023/11/19 10:20:41;;;;;;;22.75;5.90;;;13.30;99.90;;;;;;5094327;28;20009;-86
2023/11/19 10:23:07;;;;;;;23.80;5.90;;;13.30;99.90;;;;;;5080207;28;20016;-86
2023/11/19 10:25:33;;;;;;;24.25;5.95;;;13.30;99.90;;;;;;5080306;28;20005;-86
2023/11/19 10:28:00;;;;;;;23.17;5.20;;;13.30;99.90;;;;;;5062757;28;20012;-86
2023/11/19 10:30:28;;;;;;;19.95;5.07;;;13.30;99.90;;;;;;5061038;28;20475;-87
2023/11/19 10:33:07;;;;;;;24.67;6.03;;;13.30;99.90;;;;;;5058728;28;20448;-87
2023/11/19 10:35:52;;;;;;;25.20;5.97;;;13.40;99.90;;;;;;5043160;28;20116;-87
2023/11/19 10:38:17;;;;;;;23.70;5.68;;;13.40;99.90;;;;;;5059321;28;20107;-86
2023/11/19 10:40:46;;;;;;;19.67;4.88;;;13.40;99.90;;;;;;5042258;28;20056;-87
2023/11/19 10:43:12;;;;;;;20.70;5.10;;;13.40;99.90;;;;;;5058891;28;20115;-86
2023/11/19 10:45:39;;;;;;;20.23;4.75;;;13.40;99.90;;;;;;5076257;28;20115;-87
2023/11/19 10:48:06;;;;;;;26.73;5.50;;;13.40;99.90;;;;;;5058937;28;20025;-86
2023/11/19 10:50:36;;;;;;;20.98;5.40;;;13.40;99.90;;;;;;5076624;28;20525;-86
2023/11/19 10:53:03;;;;;;;21.13;4.85;;;13.40;99.90;;;;;;5058782;28;20031;-85
2023/11/19 10:55:31;;;;;;;20.00;4.65;;;13.50;99.90;;;;;;5076683;28;20494;-86
2023/11/19 10:58:01;;;;;;;23.42;5.25;;;13.50;99.90;;;;;;5076633;28;20016;-87
2023/11/19 11:00:58;;;;;;;25.70;5.20;;;13.50;99.90;;;;;;5058342;28;20115;-85
2023/11/19 11:03:31;;;;;;;26.85;6.38;;;13.50;99.90;;;;;;5055836;28;20081;-86
2023/11/19 11:05:58;;;;;;;24.15;5.53;;;13.60;99.90;;;;;;5058198;28;20056;-86
2023/11/19 11:08:24;;;;;;;21.42;4.97;;;13.60;99.90;;;;;;5042290;28;20032;-87
2023/11/19 11:10:57;;;;;;;23.55;5.45;;;13.60;99.90;;;;;;5042158;28;20029;-85
2023/11/19 11:13:24;;;;;;;24.45;5.43;;;13.70;99.90;;;;;;5058899;28;20067;-87
2023/11/19 11:15:51;;;;;;;19.70;5.05;;;13.70;99.90;;;;;;5059208;28;20017;-88
2023/11/19 11:18:18;;;;;;;23.27;6.05;;;13.70;99.90;;;;;;5042610;28;20376;-87
2023/11/19 11:20:47;;;;;;;16.55;4.70;;;13.70;99.90;;;;;;5059305;28;20051;-87
2023/11/19 11:23:25;;;;;;;19.55;5.03;;;13.70;99.90;;;;;;5076458;28;20064;-87
2023/11/19 11:26:34;;;;;;;19.92;4.82;;;13.70;99.90;;;;;;5058591;28;20120;-87
2023/11/19 11:29:04;;;;;;;22.10;4.57;;;13.70;99.90;;;;;;5059101;28;20434;-87
2023/11/19 11:31:46;;;;;;;23.30;5.65;;;13.70;99.90;;;;;;5076361;28;20070;-90
2023/11/19 11:34:27;;;;;;;23.48;5.07;;;13.70;99.90;;;;;;5076299;28;20023;-87
2023/11/19 11:37:10;;;;;;;;;;;13.70;99.90;;;;;;5076927;28;20024;-87
2023/11/19 11:39:42;;;;;;;26.17;5.63;;;13.70;99.90;;;;;;5058685;28;19911;-88
2023/11/19 11:42:32;;;;;;;21.17;5.13;;;13.80;99.90;;;;;;5058754;28;20032;-87
2023/11/19 11:45:09;;;;;;;20.90;4.65;;;13.70;99.90;;;;;;5035516;28;20046;-85
2023/11/19 11:47:47;;;;;;;20.33;5.30;;;13.80;99.90;;;;;;5058384;28;20070;-86
2023/11/19 11:50:20;;;;;;;24.98;5.60;;;13.80;99.90;;;;;;5057827;28;20024;-86
2023/11/19 11:52:58;;;;;;;19.13;4.75;;;13.80;99.90;;;;;;5025492;28;20444;-86
2023/11/19 11:55:36;;;;;;;16.33;4.10;;;13.80;99.90;;;;;;5077818;28;20016;-87
2023/11/19 11:58:02;;;;;;;18.75;5.18;;;13.90;99.90;;;;;;5068281;28;20005;-87
2023/11/19 12:00:31;;;;;;;17.27;4.38;;;13.90;99.90;;;;;;5081317;28;20016;-86
2023/11/19 12:03:01;;;;;;;23.88;5.97;;;13.90;99.90;;;;;;5065245;28;20021;-84
2023/11/19 12:05:29;;;;;;;24.10;5.78;;;13.90;99.90;;;;;;5058844;28;20042;-87
2023/11/19 12:07:57;;;;;;;24.08;5.97;;;13.80;99.90;;;;;;5053459;28;20060;-87
2023/11/19 12:10:24;;;;;;;24.80;5.40;;;13.80;99.90;;;;;;5035257;28;20025;-87
2023/11/19 12:12:53;;;;;;;21.73;5.47;;;13.70;99.90;;;;;;5002550;28;20465;-88
2023/11/19 12:15:19;;;;;;;22.73;5.50;;;13.70;99.90;;;;;;5034313;28;20496;-87
2023/11/19 12:17:51;;;;;;;23.30;5.63;;;13.70;99.90;;;;;;5033808;28;20030;-86
2023/11/19 12:20:19;;;;;;;20.67;4.47;;;13.70;99.90;;;;;;5017109;28;20425;-87
2023/11/19 12:22:48;;;;;;;21.50;4.57;;;13.70;99.90;;;;;;5033382;28;20029;-86
2023/11/19 12:25:13;;;;;;;15.10;4.45;;;13.70;99.90;;;;;;5034077;28;20025;-87
2023/11/19 12:27:41;;;;;;;14.80;4.35;;;13.80;99.90;;;;;;5033807;28;20473;-86
2023/11/19 12:30:08;;;;;;;16.70;4.85;;;13.80;99.90;;;;;;5033549;28;20455;-87
2023/11/19 12:32:45;;;;;;;14.85;4.30;;;13.80;99.90;;;;;;5016949;28;20470;-87
2023/11/19 12:35:12;;;;;;;14.02;3.65;;;13.80;99.90;;;;;;5034582;28;20026;-85
2023/11/19 12:37:45;;;;;;;15.93;4.25;;;13.90;99.90;;;;;;5034484;28;20089;-85
2023/11/19 12:40:19;;;;;;;10.65;3.13;;;14.00;99.90;;;;;;5033094;28;20469;-85